Time;durP1;ratioP1;P1;durP2;ratioP2;P2;SDS_P1;SDS_P2;PMS_P1;PMS_P2;Temp;Humidity;BMP_temperature;BMP_pressure;BME280_temperature;BME280_humidity;BME280_pressure;Samples;Min_cycle;Max_cycle;Signal;HPM_P1;HPM_P2
2022/01/03 00:00:23;;;;;;;34.13;3.70;;;10.40;99.90;;;;;;5079632;28;20033;-73
2022/01/03 00:02:49;;;;;;;26.38;3.50;;;10.40;99.90;;;;;;5087270;28;20051;-75
2022/01/03 00:05:15;;;;;;;39.25;4.72;;;10.40;99.90;;;;;;5082397;28;20032;-76
2022/01/03 00:07:46;;;;;;;36.10;5.53;;;10.40;99.90;;;;;;5072406;28;20028;-74
2022/01/03 00:10:13;;;;;;;40.17;4.97;;;10.40;99.90;;;;;;5072514;28;20098;-75
2022/01/03 00:12:40;;;;;;;32.80;5.32;;;10.50;99.90;;;;;;5074242;28;20020;-75
2022/01/03 00:15:08;;;;;;;31.35;3.55;;;10.50;99.90;;;;;;5071380;28;20031;-75
2022/01/03 00:17:34;;;;;;;40.97;4.43;;;10.40;99.90;;;;;;5072607;28;20021;-75
2022/01/03 00:19:59;;;;;;;37.33;4.55;;;10.40;99.90;;;;;;5072704;28;20688;-75
2022/01/03 00:22:31;;;;;;;41.55;5.07;;;10.40;99.90;;;;;;5071614;28;20032;-75
2022/01/03 00:25:10;;;;;;;32.50;6.55;;;10.40;99.90;;;;;;5072662;28;20028;-75
2022/01/03 00:28:07;;;;;;;38.15;4.80;;;10.40;99.90;;;;;;5072246;28;20054;-75
2022/01/03 00:30:38;;;;;;;40.42;4.18;;;10.40;99.90;;;;;;5067715;28;20043;-75
2022/01/03 00:33:04;;;;;;;38.13;5.20;;;10.40;99.90;;;;;;5072643;28;20036;-75
2022/01/03 00:35:33;;;;;;;49.38;5.95;;;10.40;99.90;;;;;;5072798;28;20025;-76
2022/01/03 00:38:00;;;;;;;31.63;5.88;;;10.30;99.90;;;;;;5072050;28;20021;-75
2022/01/03 00:40:26;;;;;;;27.73;4.13;;;10.30;99.90;;;;;;5072375;28;20104;-75
2022/01/03 00:42:52;;;;;;;48.63;4.47;;;10.40;99.90;;;;;;5073472;28;20025;-74
2022/01/03 00:45:18;;;;;;;40.25;5.60;;;10.30;99.90;;;;;;5076647;28;20028;-74
2022/01/03 00:47:47;;;;;;;48.67;5.22;;;10.30;99.90;;;;;;5076753;28;20028;-75
2022/01/03 00:50:18;;;;;;;41.78;5.13;;;10.30;99.90;;;;;;5075711;28;20060;-75
2022/01/03 00:52:45;;;;;;;46.50;5.35;;;10.30;99.90;;;;;;5076191;28;20052;-75
2022/01/03 00:55:12;;;;;;;26.17;2.38;;;10.30;99.90;;;;;;5075613;28;20021;-74
2022/01/03 00:58:00;;;;;;;34.75;4.22;;;10.30;99.90;;;;;;5075728;28;20016;-75
2022/01/03 01:00:30;;;;;;;25.55;4.25;;;10.20;99.90;;;;;;5075759;28;20028;-74
2022/01/03 01:03:17;;;;;;;24.23;4.10;;;10.20;99.90;;;;;;5076083;28;20029;-74
2022/01/03 01:05:45;;;;;;;26.90;4.40;;;10.20;99.90;;;;;;5075221;28;20031;-75
2022/01/03 01:08:21;;;;;;;22.90;3.97;;;10.20;99.90;;;;;;5075895;28;20471;-75
2022/01/03 01:10:51;;;;;;;26.42;4.38;;;10.20;99.90;;;;;;5076051;28;20025;-74
2022/01/03 01:13:18;;;;;;;36.70;4.90;;;10.20;99.90;;;;;;5076283;28;20020;-74
2022/01/03 01:15:43;;;;;;;44.70;5.25;;;10.10;99.90;;;;;;5076027;28;20028;-74
2022/01/03 01:18:09;;;;;;;32.47;5.65;;;10.20;99.90;;;;;;5075230;28;20178;-76
2022/01/03 01:20:37;;;;;;;16.85;3.10;;;10.20;99.90;;;;;;5076044;28;20036;-75
2022/01/03 01:23:03;;;;;;;45.88;5.97;;;10.20;99.90;;;;;;5075468;28;20036;-75
2022/01/03 01:28:00;;;;;;;54.95;7.18;;;10.20;99.90;;;;;;5075758;28;20020;-74
2022/01/03 01:30:28;;;;;;;38.15;4.95;;;10.20;99.90;;;;;;5075219;28;20038;-74
2022/01/03 01:33:02;;;;;;;41.78;6.43;;;10.10;99.90;;;;;;5074926;28;20055;-74
2022/01/03 01:35:40;;;;;;;28.27;4.40;;;10.10;99.90;;;;;;5075807;28;20024;-76
2022/01/03 01:38:09;;;;;;;24.30;2.97;;;10.10;99.90;;;;;;5075782;28;20029;-76
2022/01/03 01:40:41;;;;;;;34.90;6.47;;;10.10;99.90;;;;;;5075451;28;20032;-76
2022/01/03 01:43:10;;;;;;;21.25;4.05;;;10.10;99.90;;;;;;5075733;28;20036;-76
2022/01/03 01:45:36;;;;;;;32.05;5.25;;;10.10;99.90;;;;;;5076215;28;20055;-77
2022/01/03 01:48:03;;;;;;;39.38;5.82;;;10.10;99.90;;;;;;5074481;28;20024;-75
2022/01/03 01:50:29;;;;;;;38.17;5.10;;;10.10;99.90;;;;;;5075439;28;20031;-76
2022/01/03 01:52:56;;;;;;;35.83;4.82;;;10.10;99.90;;;;;;5075774;28;20095;-76
2022/01/03 01:55:23;;;;;;;27.42;4.18;;;10.10;99.90;;;;;;5074568;28;20039;-76
2022/01/03 01:58:23;;;;;;;29.27;4.40;;;10.20;99.90;;;;;;5075131;28;20395;-76
2022/01/03 02:01:00;;;;;;;39.47;5.43;;;10.20;99.90;;;;;;5072057;28;20048;-76
2022/01/03 02:03:52;;;;;;;31.45;4.75;;;10.10;99.90;;;;;;5074701;28;20036;-76
2022/01/03 02:06:20;;;;;;;28.42;3.63;;;10.20;99.90;;;;;;5074688;28;20033;-76
2022/01/03 02:09:03;;;;;;;35.05;4.38;;;10.20;99.90;;;;;;5074716;28;20050;-77
2022/01/03 02:11:45;;;;;;;20.90;3.30;;;10.20;99.90;;;;;;5077508;28;20024;-76
2022/01/03 02:14:11;;;;;;;33.65;5.30;;;10.20;99.90;;;;;;5074981;28;20063;-76
2022/01/03 02:16:38;;;;;;;38.97;4.68;;;10.10;99.90;;;;;;5075383;28;20021;-76
2022/01/03 02:19:03;;;;;;;32.42;4.47;;;10.20;99.90;;;;;;5074470;28;20495;-76
2022/01/03 02:21:29;;;;;;;34.28;4.72;;;10.20;99.90;;;;;;5074389;28;20066;-74
2022/01/03 02:23:54;;;;;;;44.40;5.40;;;10.10;99.90;;;;;;5076018;28;20484;-76
2022/01/03 02:26:20;;;;;;;44.85;7.05;;;10.10;99.90;;;;;;5074851;28;20025;-76
2022/01/03 02:28:45;;;;;;;29.73;4.25;;;10.10;99.90;;;;;;5073888;28;20365;-77
2022/01/03 02:31:11;;;;;;;29.85;4.25;;;10.10;99.90;;;;;;5076561;28;20086;-77
2022/01/03 02:33:38;;;;;;;38.55;4.55;;;10.10;99.90;;;;;;5074579;28;20499;-76
2022/01/03 02:36:04;;;;;;;34.53;4.75;;;10.10;99.90;;;;;;5073569;28;20086;-75
2022/01/03 02:38:30;;;;;;;38.22;4.65;;;10.10;99.90;;;;;;5074518;28;20028;-76
2022/01/03 02:40:56;;;;;;;26.02;3.92;;;10.00;99.90;;;;;;5074482;28;20065;-75
2022/01/03 02:43:23;;;;;;;44.30;4.97;;;10.00;99.90;;;;;;5073537;28;20033;-76
2022/01/03 02:45:51;;;;;;;37.58;5.25;;;10.00;99.90;;;;;;5074358;28;20036;-75
2022/01/03 02:48:22;;;;;;;29.85;3.97;;;10.00;99.90;;;;;;5074116;28;20032;-76
2022/01/03 02:50:48;;;;;;;40.90;5.38;;;10.10;99.90;;;;;;5073384;28;20497;-75
2022/01/03 02:53:14;;;;;;;34.58;4.95;;;10.00;99.90;;;;;;5073700;28;20035;-75
2022/01/03 02:55:40;;;;;;;43.60;5.10;;;10.00;99.90;;;;;;5081791;28;20024;-76
2022/01/03 02:58:08;;;;;;;36.03;4.18;;;10.00;99.90;;;;;;5092943;28;20016;-76
2022/01/03 03:00:50;;;;;;;32.60;6.22;;;10.00;99.90;;;;;;5094077;28;20021;-76
2022/01/03 03:03:17;;;;;;;31.30;4.75;;;9.90;99.90;;;;;;5093700;28;20074;-75
2022/01/03 03:05:44;;;;;;;30.52;3.95;;;9.90;99.90;;;;;;5093321;28;20023;-75
2022/01/03 03:08:12;;;;;;;31.83;4.75;;;9.90;99.90;;;;;;5093687;28;20546;-76
2022/01/03 03:10:44;;;;;;;44.33;5.82;;;10.00;99.90;;;;;;5092913;28;20027;-75
2022/01/03 03:13:09;;;;;;;35.50;5.55;;;10.00;99.90;;;;;;5093980;28;20119;-75
2022/01/03 03:15:38;;;;;;;44.03;6.22;;;10.10;99.90;;;;;;5094259;28;20044;-76
2022/01/03 03:18:03;;;;;;;27.90;5.70;;;10.10;99.90;;;;;;5092720;28;20028;-75
2022/01/03 03:20:32;;;;;;;38.20;5.32;;;10.20;99.90;;;;;;5093851;28;20052;-76
2022/01/03 03:22:59;;;;;;;36.42;4.38;;;10.20;99.90;;;;;;5094027;28;20028;-75
2022/01/03 03:25:27;;;;;;;42.60;6.03;;;10.30;99.90;;;;;;5092695;28;20078;-75
2022/01/03 03:28:00;;;;;;;33.08;4.75;;;10.30;99.90;;;;;;5093810;28;20119;-75
2022/01/03 03:30:32;;;;;;;32.72;5.78;;;10.30;99.90;;;;;;5093492;28;20106;-75
2022/01/03 03:33:07;;;;;;;37.70;5.22;;;10.30;99.90;;;;;;5093361;28;20053;-75
2022/01/03 03:35:34;;;;;;;46.88;6.57;;;10.30;99.90;;;;;;5093699;28;20024;-75
2022/01/03 03:37:59;;;;;;;40.42;5.78;;;10.30;99.90;;;;;;5093289;28;20024;-76
2022/01/03 03:40:26;;;;;;;45.15;5.38;;;10.30;99.90;;;;;;5093082;28;20099;-76
2022/01/03 03:42:52;;;;;;;33.72;4.45;;;10.30;99.90;;;;;;5093572;28;20077;-75
2022/01/03 03:45:18;;;;;;;54.17;6.63;;;10.30;99.90;;;;;;5093024;28;20160;-76
2022/01/03 03:47:44;;;;;;;34.45;5.03;;;10.30;99.90;;;;;;5092521;28;20028;-75
2022/01/03 03:50:10;;;;;;;39.53;6.13;;;10.30;99.90;;;;;;5092980;28;20103;-76
2022/01/03 03:52:36;;;;;;;36.20;4.40;;;10.40;99.90;;;;;;5092688;28;20055;-75
2022/01/03 03:55:02;;;;;;;41.95;5.85;;;10.40;99.90;;;;;;5093258;28;20383;-75
2022/01/03 03:57:27;;;;;;;43.33;5.25;;;10.40;99.90;;;;;;5092759;28;20020;-75
2022/01/03 03:59:53;;;;;;;36.10;5.15;;;10.40;99.90;;;;;;5092454;28;20028;-76
2022/01/03 04:02:18;;;;;;;40.35;7.00;;;10.30;99.90;;;;;;5092578;28;20048;-75
2022/01/03 04:04:44;;;;;;;44.20;4.85;;;10.40;99.90;;;;;;5092864;28;20031;-75
2022/01/03 04:07:10;;;;;;;45.33;5.85;;;10.40;99.90;;;;;;5091891;28;20072;-76
2022/01/03 04:09:35;;;;;;;37.78;5.85;;;10.40;99.90;;;;;;5093133;28;20114;-76
2022/01/03 04:12:01;;;;;;;35.20;5.85;;;10.40;99.90;;;;;;5093120;28;20038;-75
2022/01/03 04:14:29;;;;;;;43.00;6.22;;;10.40;99.90;;;;;;5091886;28;20471;-75
2022/01/03 04:16:55;;;;;;;57.13;6.28;;;10.40;99.90;;;;;;5092191;28;20024;-76
2022/01/03 04:19:20;;;;;;;37.17;6.45;;;10.40;99.90;;;;;;5092427;28;20472;-75
2022/01/03 04:21:46;;;;;;;45.67;6.35;;;10.40;99.90;;;;;;5092007;28;20031;-75
2022/01/03 04:24:11;;;;;;;42.78;6.22;;;10.50;99.90;;;;;;5093035;28;20047;-76
2022/01/03 04:26:39;;;;;;;28.10;5.00;;;10.50;99.90;;;;;;5092906;28;20016;-76
2022/01/03 04:29:05;;;;;;;49.65;6.10;;;10.50;99.90;;;;;;5092228;28;20099;-76
2022/01/03 04:31:32;;;;;;;31.55;5.63;;;10.50;99.90;;;;;;5096332;28;20423;-76
2022/01/03 04:33:59;;;;;;;42.08;4.90;;;10.50;99.90;;;;;;5096762;28;20055;-76
2022/01/03 04:36:25;;;;;;;39.72;5.93;;;10.40;99.90;;;;;;5092477;28;20074;-75
2022/01/03 04:38:51;;;;;;;40.20;6.93;;;10.40;99.90;;;;;;5093057;28;20422;-75
2022/01/03 04:41:16;;;;;;;43.47;5.88;;;10.50;99.90;;;;;;5092401;28;20024;-76
2022/01/03 04:43:42;;;;;;;37.25;6.82;;;10.40;99.90;;;;;;5091893;28;20043;-76
2022/01/03 04:46:11;;;;;;;43.15;4.53;;;10.40;99.90;;;;;;5092448;28;20020;-76
2022/01/03 04:48:39;;;;;;;33.90;5.68;;;10.40;99.90;;;;;;5092413;28;20032;-75
2022/01/03 04:51:05;;;;;;;40.55;4.85;;;10.50;99.90;;;;;;5091677;28;20100;-76
2022/01/03 04:53:33;;;;;;;35.67;5.75;;;10.40;99.90;;;;;;5092412;28;20024;-76
2022/01/03 04:55:59;;;;;;;48.13;7.40;;;10.50;99.90;;;;;;5091799;28;20383;-76
2022/01/03 04:58:24;;;;;;;34.20;5.20;;;10.40;99.90;;;;;;5091976;28;20084;-76
2022/01/03 05:00:50;;;;;;;44.42;6.30;;;10.40;99.90;;;;;;5092083;28;20134;-76
2022/01/03 05:03:16;;;;;;;37.90;6.95;;;10.40;99.90;;;;;;5091130;28;20043;-76
2022/01/03 05:05:42;;;;;;;34.78;5.95;;;10.40;99.90;;;;;;5092347;28;20024;-75
2022/01/03 05:08:08;;;;;;;36.97;5.68;;;10.40;99.90;;;;;;5092266;28;20024;-76
2022/01/03 05:10:34;;;;;;;37.15;6.30;;;10.30;99.90;;;;;;5091664;28;20047;-75
2022/01/03 05:13:00;;;;;;;34.47;3.88;;;10.40;99.90;;;;;;5090998;28;20494;-75
2022/01/03 05:15:26;;;;;;;41.55;6.65;;;10.30;99.90;;;;;;5091942;28;20031;-76
2022/01/03 05:17:52;;;;;;;36.22;4.72;;;10.30;99.90;;;;;;5091897;28;20020;-75
2022/01/03 05:20:17;;;;;;;27.00;5.38;;;10.40;99.90;;;;;;5092678;28;20034;-76
2022/01/03 05:22:43;;;;;;;37.00;5.28;;;10.40;99.90;;;;;;5092160;28;20027;-76
2022/01/03 05:25:09;;;;;;;27.38;4.30;;;10.30;99.90;;;;;;5091107;28;20061;-76
2022/01/03 05:27:37;;;;;;;40.42;5.85;;;10.30;99.90;;;;;;5091977;28;20016;-76
2022/01/03 05:30:03;;;;;;;36.83;5.22;;;10.30;99.90;;;;;;5095531;28;20384;-75
2022/01/03 05:32:29;;;;;;;35.15;6.43;;;10.30;99.90;;;;;;5096483;28;20028;-76
2022/01/03 05:34:54;;;;;;;40.83;4.72;;;10.30;99.90;;;;;;5096303;28;20031;-76
2022/01/03 05:37:20;;;;;;;29.83;4.13;;;10.30;99.90;;;;;;5095918;28;20065;-76
2022/01/03 05:39:46;;;;;;;24.20;3.80;;;10.30;99.90;;;;;;5095004;28;20110;-76
2022/01/03 05:42:11;;;;;;;28.75;4.32;;;10.20;99.90;;;;;;5095514;28;20024;-76
2022/01/03 05:44:37;;;;;;;39.08;7.13;;;10.30;99.90;;;;;;5095711;28;20036;-76
2022/01/03 05:47:02;;;;;;;30.83;6.65;;;10.30;99.90;;;;;;5094646;28;20023;-75
2022/01/03 05:49:28;;;;;;;26.95;4.72;;;10.20;99.90;;;;;;5095866;28;20126;-74
2022/01/03 05:51:53;;;;;;;29.92;4.40;;;10.10;99.90;;;;;;5095616;28;20027;-76
2022/01/03 05:54:19;;;;;;;32.25;3.83;;;10.20;99.90;;;;;;5094240;28;20083;-76
2022/01/03 05:56:45;;;;;;;26.45;5.88;;;10.20;99.90;;;;;;5095379;28;20032;-76
2022/01/03 05:59:10;;;;;;;38.17;4.47;;;10.10;99.90;;;;;;5094394;28;20444;-76
2022/01/03 06:01:36;;;;;;;31.40;4.25;;;10.10;99.90;;;;;;5079944;28;20055;-76
2022/01/03 06:04:14;;;;;;;35.22;4.20;;;10.10;99.90;;;;;;5074832;28;20036;-76
2022/01/03 06:06:55;;;;;;;39.83;3.75;;;10.10;99.90;;;;;;5074072;28;20025;-76
2022/01/03 06:09:22;;;;;;;32.67;3.92;;;10.20;99.90;;;;;;5074109;28;20024;-76
2022/01/03 06:11:50;;;;;;;27.08;3.88;;;10.10;99.90;;;;;;5073780;28;20025;-76
2022/01/03 06:14:25;;;;;;;29.25;3.95;;;10.20;99.90;;;;;;5076097;28;20090;-76
2022/01/03 06:16:52;;;;;;;33.45;5.43;;;10.20;99.90;;;;;;5074368;28;20059;-77
2022/01/03 06:19:18;;;;;;;29.60;4.05;;;10.20;99.90;;;;;;5074806;28;20085;-76
2022/01/03 06:21:44;;;;;;;23.67;3.92;;;10.20;99.90;;;;;;5076885;28;20391;-76
2022/01/03 06:24:12;;;;;;;42.47;7.35;;;10.20;99.90;;;;;;5074642;28;20052;-76
2022/01/03 06:26:41;;;;;;;33.05;3.63;;;10.20;99.90;;;;;;5074351;28;20036;-76
2022/01/03 06:29:07;;;;;;;33.35;6.10;;;10.20;99.90;;;;;;5076753;28;20360;-76
2022/01/03 06:31:33;;;;;;;39.72;5.03;;;10.20;99.90;;;;;;5076532;28;20519;-76
2022/01/03 06:33:59;;;;;;;32.08;5.57;;;10.10;99.90;;;;;;5087188;28;20036;-76
2022/01/03 06:36:25;;;;;;;26.73;4.38;;;10.10;99.90;;;;;;5079500;28;20028;-76
2022/01/03 06:38:51;;;;;;;33.42;5.13;;;10.20;99.90;;;;;;5074003;28;20483;-76
2022/01/03 06:41:16;;;;;;;37.13;5.43;;;10.10;99.90;;;;;;5072650;28;20028;-77
2022/01/03 06:43:42;;;;;;;29.85;3.28;;;10.20;99.90;;;;;;5073230;28;20036;-76
2022/01/03 06:46:08;;;;;;;25.58;3.40;;;10.20;99.90;;;;;;5090547;28;20020;-77
2022/01/03 06:48:33;;;;;;;30.30;4.15;;;10.20;99.90;;;;;;5093726;28;20023;-76
2022/01/03 06:51:00;;;;;;;29.05;4.53;;;10.30;99.90;;;;;;5093870;28;20372;-77
2022/01/03 06:53:26;;;;;;;30.83;4.55;;;10.30;99.90;;;;;;5094252;28;20387;-76
2022/01/03 06:55:51;;;;;;;32.72;3.83;;;10.30;99.90;;;;;;5093921;28;20022;-77
2022/01/03 06:58:17;;;;;;;21.60;3.83;;;10.30;99.90;;;;;;5094112;28;20024;-76
2022/01/03 07:00:42;;;;;;;30.48;4.28;;;10.30;99.90;;;;;;5093629;28;20043;-76
2022/01/03 07:03:08;;;;;;;35.05;4.82;;;10.20;99.90;;;;;;5092293;28;20036;-77
2022/01/03 07:05:33;;;;;;;30.20;4.72;;;10.30;99.90;;;;;;5093610;28;20016;-77
2022/01/03 07:07:59;;;;;;;23.85;3.75;;;10.20;99.90;;;;;;5074714;28;20471;-76
2022/01/03 07:10:25;;;;;;;27.38;4.35;;;10.20;99.90;;;;;;5072239;28;20074;-76
2022/01/03 07:12:52;;;;;;;30.70;3.97;;;10.20;99.90;;;;;;5090492;28;20463;-75
2022/01/03 07:20:49;;;;;;;34.50;4.93;;;10.20;99.90;;;;;;5093721;28;20069;-76
2022/01/03 07:23:18;;;;;;;29.95;4.25;;;10.10;99.90;;;;;;5080515;28;20418;-76
2022/01/03 07:25:45;;;;;;;37.78;5.88;;;10.20;99.90;;;;;;5074561;28;20747;-76
2022/01/03 07:28:13;;;;;;;24.52;3.80;;;10.20;99.90;;;;;;5092864;28;20024;-75
2022/01/03 07:30:38;;;;;;;30.70;3.75;;;10.10;99.90;;;;;;5092476;28;20099;-76
2022/01/03 07:33:04;;;;;;;40.10;5.07;;;10.10;99.90;;;;;;5092731;28;20106;-76
2022/01/03 07:35:30;;;;;;;34.28;4.25;;;10.20;99.90;;;;;;5092773;28;20012;-76
2022/01/03 07:37:55;;;;;;;34.88;4.13;;;10.20;99.90;;;;;;5091002;28;20417;-76
2022/01/03 07:40:22;;;;;;;34.33;3.85;;;10.20;99.90;;;;;;5072411;28;20103;-76
2022/01/03 07:42:47;;;;;;;28.52;3.67;;;10.20;99.90;;;;;;5072609;28;20039;-76
2022/01/03 07:45:13;;;;;;;25.08;4.45;;;10.20;99.90;;;;;;5091810;28;20024;-76
2022/01/03 07:47:39;;;;;;;34.33;4.93;;;10.10;99.90;;;;;;5092816;28;20028;-77
2022/01/03 07:50:07;;;;;;;37.22;4.28;;;10.20;99.90;;;;;;5092196;28;20073;-76
2022/01/03 07:52:33;;;;;;;29.30;4.65;;;10.10;99.90;;;;;;5089674;28;20031;-76
2022/01/03 07:54:59;;;;;;;37.17;4.75;;;10.10;99.90;;;;;;5082781;28;20020;-76
2022/01/03 07:57:25;;;;;;;25.52;4.20;;;10.20;99.90;;;;;;5073097;28;20074;-76
2022/01/03 07:59:55;;;;;;;37.97;4.50;;;10.20;99.90;;;;;;5080608;28;20028;-75
2022/01/03 08:02:21;;;;;;;24.70;6.17;;;10.20;99.90;;;;;;5077321;28;20053;-74
2022/01/03 08:04:46;;;;;;;27.83;4.40;;;10.20;99.90;;;;;;5080595;28;20688;-75
2022/01/03 08:07:12;;;;;;;35.47;4.30;;;10.20;99.90;;;;;;5094239;28;20020;-75
2022/01/03 08:09:38;;;;;;;30.80;4.15;;;10.30;99.90;;;;;;5094488;28;20027;-75
2022/01/03 08:12:05;;;;;;;32.63;4.43;;;10.30;99.90;;;;;;5093339;28;20016;-76
2022/01/03 08:14:32;;;;;;;28.50;4.75;;;10.30;99.90;;;;;;5092875;28;20024;-75
2022/01/03 08:16:58;;;;;;;32.72;4.55;;;10.20;99.90;;;;;;5093484;28;20028;-76
2022/01/03 08:19:24;;;;;;;26.05;4.80;;;10.30;99.90;;;;;;5094505;28;20023;-76
2022/01/03 08:21:50;;;;;;;26.27;4.05;;;10.20;99.90;;;;;;5093906;28;20080;-76
2022/01/03 08:24:16;;;;;;;33.72;5.43;;;10.20;99.90;;;;;;5093438;28;20395;-76
2022/01/03 08:26:42;;;;;;;30.75;4.78;;;10.20;99.90;;;;;;5093701;28;20028;-75
2022/01/03 08:29:11;;;;;;;21.27;3.30;;;10.30;99.90;;;;;;5092511;28;20361;-76
2022/01/03 08:31:37;;;;;;;24.85;3.75;;;10.20;99.90;;;;;;5092995;28;20024;-77
2022/01/03 08:34:04;;;;;;;40.38;4.55;;;10.20;99.90;;;;;;5083762;28;20020;-75
2022/01/03 08:36:30;;;;;;;32.78;4.97;;;10.20;99.90;;;;;;5077667;28;20093;-75
2022/01/03 08:38:55;;;;;;;34.30;4.45;;;10.20;99.90;;;;;;5088405;28;20062;-76
2022/01/03 08:41:24;;;;;;;26.27;4.35;;;10.20;99.90;;;;;;5095059;28;20024;-76
2022/01/03 08:43:51;;;;;;;32.92;4.20;;;10.20;99.90;;;;;;5087608;28;20067;-77
2022/01/03 08:46:17;;;;;;;37.67;6.53;;;10.10;99.90;;;;;;5090959;28;20024;-76
2022/01/03 08:48:42;;;;;;;23.50;3.65;;;10.20;99.90;;;;;;5091183;28;20509;-77
2022/01/03 08:51:08;;;;;;;29.52;4.25;;;10.20;99.90;;;;;;5090515;28;20028;-75
2022/01/03 08:53:35;;;;;;;31.50;5.10;;;10.20;99.90;;;;;;5091915;28;20056;-76
2022/01/03 08:56:00;;;;;;;28.80;4.35;;;10.20;99.90;;;;;;5090660;28;20020;-77
2022/01/03 08:58:27;;;;;;;31.27;4.50;;;10.30;99.90;;;;;;5090684;28;20023;-75
2022/01/03 09:00:53;;;;;;;21.67;3.88;;;10.30;99.90;;;;;;5090264;28;20059;-76
2022/01/03 09:03:19;;;;;;;38.17;5.63;;;10.30;99.90;;;;;;5090407;28;20028;-74
2022/01/03 09:05:46;;;;;;;30.60;4.70;;;10.30;99.90;;;;;;5095567;28;20470;-77
2022/01/03 09:08:12;;;;;;;34.55;3.85;;;10.30;99.90;;;;;;5095280;28;20372;-76
2022/01/03 09:10:39;;;;;;;29.40;3.95;;;10.20;99.90;;;;;;5095525;28;20473;-74
2022/01/03 09:13:04;;;;;;;34.60;5.15;;;10.10;99.90;;;;;;5094993;28;20054;-77
2022/01/03 09:15:31;;;;;;;30.70;4.88;;;10.10;99.90;;;;;;5096496;28;20059;-75
2022/01/03 09:17:57;;;;;;;31.30;4.53;;;10.10;99.90;;;;;;5095655;28;20095;-75
2022/01/03 09:20:23;;;;;;;28.73;4.32;;;10.00;99.90;;;;;;5095692;28;20583;-76
2022/01/03 09:22:53;;;;;;;33.47;5.65;;;10.10;99.90;;;;;;5095372;28;20375;-76
2022/01/03 09:30:30;;;;;;;24.98;4.70;;;10.10;99.90;;;;;;5091144;28;20550;-74
2022/01/03 09:32:56;;;;;;;35.15;4.45;;;10.10;99.90;;;;;;5097501;28;20027;-75
2022/01/03 09:35:22;;;;;;;27.80;4.90;;;10.00;99.90;;;;;;5094180;28;20561;-75
2022/01/03 09:37:48;;;;;;;32.50;4.63;;;10.00;99.90;;;;;;5093762;28;20016;-75
2022/01/03 09:40:15;;;;;;;22.30;4.50;;;10.10;99.90;;;;;;5093118;28;20024;-75
2022/01/03 09:42:44;;;;;;;35.17;4.38;;;10.10;99.90;;;;;;5094079;28;20039;-74
2022/01/03 09:45:11;;;;;;;35.80;4.18;;;10.00;99.90;;;;;;5093362;28;20105;-75
2022/01/03 09:47:39;;;;;;;23.35;4.72;;;10.00;99.90;;;;;;5093698;28;20027;-75
2022/01/03 09:50:06;;;;;;;39.53;5.13;;;10.10;99.90;;;;;;5094055;28;20028;-75
2022/01/03 09:52:33;;;;;;;29.83;3.63;;;10.00;99.90;;;;;;5093509;28;20387;-75
2022/01/03 09:54:59;;;;;;;25.02;3.25;;;10.00;99.90;;;;;;5094160;28;20100;-75
2022/01/03 09:57:28;;;;;;;32.20;4.65;;;10.00;99.90;;;;;;5093800;28;20434;-74
2022/01/03 09:59:58;;;;;;;21.95;3.72;;;10.10;99.90;;;;;;5090347;28;20027;-76
2022/01/03 10:02:25;;;;;;;34.60;3.78;;;10.10;99.90;;;;;;5088425;28;20048;-75
2022/01/03 10:04:50;;;;;;;26.65;3.65;;;10.20;99.90;;;;;;5088153;28;20036;-76
2022/01/03 10:07:17;;;;;;;28.70;4.32;;;10.20;99.90;;;;;;5085151;28;20035;-77
2022/01/03 10:09:44;;;;;;;30.27;4.32;;;10.30;99.90;;;;;;5093541;28;20060;-75
2022/01/03 10:12:11;;;;;;;14.77;3.42;;;10.30;99.90;;;;;;5080348;28;20103;-76
2022/01/03 10:14:37;;;;;;;32.65;4.95;;;10.30;99.90;;;;;;5086340;28;20048;-76
2022/01/03 10:17:03;;;;;;;24.05;4.68;;;10.30;99.90;;;;;;5085321;28;20031;-76
2022/01/03 10:19:29;;;;;;;26.23;5.03;;;10.40;99.90;;;;;;5082307;28;20070;-77
2022/01/03 10:21:55;;;;;;;31.48;4.93;;;10.50;99.90;;;;;;5080600;28;20468;-76
2022/01/03 10:24:33;;;;;;;36.15;5.00;;;10.50;99.90;;;;;;5089680;28;20081;-76
2022/01/03 10:26:59;;;;;;;29.05;4.75;;;10.60;99.90;;;;;;5089902;28;20096;-75
2022/01/03 10:29:27;;;;;;;25.75;4.80;;;10.60;99.90;;;;;;5092450;28;20024;-75
2022/01/03 10:31:57;;;;;;;27.38;3.72;;;10.60;99.90;;;;;;5093055;28;20328;-74
2022/01/03 10:34:24;;;;;;;37.00;5.45;;;10.70;99.90;;;;;;5091811;28;20119;-74
2022/01/03 10:36:50;;;;;;;34.75;6.55;;;10.80;99.90;;;;;;5092943;28;20031;-74
2022/01/03 10:39:17;;;;;;;28.08;4.35;;;10.90;99.90;;;;;;5092508;28;20042;-75
2022/01/03 10:41:45;;;;;;;27.50;4.43;;;10.90;99.90;;;;;;5091977;28;20024;-75
2022/01/03 10:44:10;;;;;;;36.00;4.82;;;11.00;99.90;;;;;;5092493;28;20115;-75
2022/01/03 10:46:38;;;;;;;28.05;4.15;;;11.00;99.90;;;;;;5092849;28;20103;-76
2022/01/03 10:49:09;;;;;;;40.03;5.90;;;11.10;99.90;;;;;;5091383;28;20031;-75
2022/01/03 10:51:38;;;;;;;16.73;3.35;;;11.00;99.90;;;;;;5093432;28;20020;-76
2022/01/03 10:54:09;;;;;;;24.52;4.47;;;11.00;99.90;;;;;;5089345;28;20031;-74
2022/01/03 10:56:39;;;;;;;;;;;11.10;99.90;;;;;;5092342;28;20029;-74
2022/01/03 10:59:23;;;;;;;29.37;4.90;;;11.10;99.90;;;;;;5094219;28;19904;-75
2022/01/03 11:01:53;;;;;;;28.30;4.75;;;11.20;99.90;;;;;;5092361;28;20289;-76
2022/01/03 11:04:30;;;;;;;32.47;5.60;;;11.20;99.90;;;;;;5085731;28;20036;-75
2022/01/03 11:13:20;;;;;;;24.25;4.28;;;11.40;99.90;;;;;;5090231;28;20107;-77
2022/01/03 11:16:06;;;;;;;32.90;6.32;;;11.40;99.90;;;;;;5088877;28;20020;-76
2022/01/03 11:18:33;;;;;;;33.72;5.63;;;11.40;99.90;;;;;;5089061;28;20063;-76
2022/01/03 11:21:04;;;;;;;20.40;3.85;;;11.40;99.90;;;;;;5087082;28;20034;-76
2022/01/03 11:23:30;;;;;;;23.70;5.05;;;11.50;99.90;;;;;;5089139;28;20040;-75
2022/01/03 11:25:56;;;;;;;29.17;5.40;;;11.60;99.90;;;;;;5089181;28;20027;-76
2022/01/03 11:28:25;;;;;;;26.50;3.60;;;11.60;99.90;;;;;;5091646;28;20031;-75
2022/01/03 11:30:53;;;;;;;19.52;4.80;;;11.60;99.90;;;;;;5090077;28;20028;-74
2022/01/03 11:33:19;;;;;;;20.23;4.07;;;11.60;99.90;;;;;;5091626;28;20073;-75
2022/01/03 11:35:47;;;;;;;20.70;3.95;;;11.80;99.90;;;;;;5092075;28;20467;-75
2022/01/03 11:38:18;;;;;;;30.17;4.25;;;11.80;99.90;;;;;;5091407;28;20028;-75
2022/01/03 11:40:44;;;;;;;29.20;3.88;;;12.00;99.90;;;;;;5092135;28;20020;-76
2022/01/03 11:43:09;;;;;;;27.20;3.92;;;12.10;99.90;;;;;;5091200;28;20480;-75
2022/01/03 11:45:36;;;;;;;28.10;3.83;;;12.10;99.90;;;;;;5091384;28;20055;-75
2022/01/03 11:48:02;;;;;;;21.95;4.22;;;12.20;99.90;;;;;;5091832;28;20020;-75
2022/01/03 11:50:29;;;;;;;27.77;4.25;;;12.10;99.90;;;;;;5089028;28;20122;-75
2022/01/03 11:52:55;;;;;;;29.85;4.15;;;12.00;99.90;;;;;;5090743;28;20024;-75
2022/01/03 11:55:24;;;;;;;31.67;5.40;;;12.00;99.90;;;;;;5088687;28;20056;-74
2022/01/03 11:58:26;;;;;;;19.25;3.92;;;11.90;99.90;;;;;;5081443;28;20032;-75
2022/01/03 12:03:50;;;;;;;29.27;4.80;;;11.80;99.90;;;;;;5078290;28;20055;-75
2022/01/03 12:06:43;;;;;;;23.48;3.88;;;11.70;99.90;;;;;;5087041;28;20032;-75
2022/01/03 12:09:11;;;;;;;27.80;3.95;;;11.60;99.90;;;;;;5088310;28;20034;-74
2022/01/03 12:11:53;;;;;;;33.03;4.47;;;11.60;99.90;;;;;;5090996;28;20039;-75
2022/01/03 12:14:20;;;;;;;27.45;4.53;;;11.40;99.90;;;;;;5090276;28;20028;-75
2022/01/03 12:16:54;;;;;;;22.20;3.53;;;11.40;99.90;;;;;;5091496;28;20094;-76
2022/01/03 12:19:42;;;;;;;23.33;3.70;;;11.30;99.90;;;;;;5088312;28;20469;-74
2022/01/03 12:22:24;;;;;;;18.83;3.55;;;11.30;99.90;;;;;;5090015;28;20028;-74
2022/01/03 12:25:03;;;;;;;20.42;5.85;;;11.20;99.90;;;;;;5091314;28;20475;-75
2022/01/03 12:27:39;;;;;;;16.15;3.90;;;11.20;99.90;;;;;;5090652;28;20031;-76
2022/01/03 12:30:06;;;;;;;22.80;3.83;;;11.20;99.90;;;;;;5090800;28;20095;-77
2022/01/03 12:32:37;;;;;;;17.33;3.30;;;11.20;99.90;;;;;;5092583;28;20503;-75
2022/01/03 12:35:19;;;;;;;18.38;2.58;;;11.20;99.90;;;;;;5086133;28;20028;-75
2022/01/03 12:37:57;;;;;;;25.98;4.10;;;11.10;99.90;;;;;;5087719;28;20497;-76
2022/01/03 12:40:28;;;;;;;17.17;3.05;;;11.10;99.90;;;;;;5090283;28;20040;-74
2022/01/03 12:42:57;;;;;;;22.90;3.42;;;11.10;99.90;;;;;;5090769;28;20428;-74
2022/01/03 12:45:34;;;;;;;26.08;3.42;;;11.10;99.90;;;;;;5090593;28;20257;-75
2022/01/03 12:50:53;;;;;;;33.47;4.53;;;11.00;99.90;;;;;;5090918;28;20035;-74
2022/01/03 12:53:28;;;;;;;20.27;3.20;;;11.10;99.90;;;;;;5090662;28;20526;-75
2022/01/03 12:56:02;;;;;;;27.73;3.95;;;11.00;99.90;;;;;;5087365;28;20020;-76
2022/01/03 12:58:27;;;;;;;30.17;7.35;;;11.00;99.90;;;;;;5089425;28;20110;-75
2022/01/03 13:00:58;;;;;;;18.90;3.53;;;10.90;99.90;;;;;;5090626;28;20537;-75
2022/01/03 13:03:27;;;;;;;24.40;3.88;;;10.90;99.90;;;;;;5088745;28;20434;-76
2022/01/03 13:06:05;;;;;;;13.30;3.60;;;10.90;99.90;;;;;;5090521;28;20044;-75
2022/01/03 13:08:37;;;;;;;30.90;3.50;;;10.90;99.90;;;;;;5089733;28;20067;-76